Time;durP1;ratioP1;P1;durP2;ratioP2;P2;SDS_P1;SDS_P2;PMS_P1;PMS_P2;Temp;Humidity;BMP_temperature;BMP_pressure;BME280_temperature;BME280_humidity;BME280_pressure;Samples;Min_cycle;Max_cycle;Signal;HPM_P1;HPM_P2
2022/04/20 00:01:22;;;;;;;7.07;3.10;;;7.80;79.90;;;;;;5091594;28;20354;-77
2022/04/20 00:03:48;;;;;;;4.35;2.70;;;7.70;80.10;;;;;;5091901;28;20111;-78
2022/04/20 00:06:14;;;;;;;5.70;2.83;;;7.70;80.50;;;;;;5072885;28;20373;-79
2022/04/20 00:08:39;;;;;;;5.85;3.05;;;7.60;80.80;;;;;;5092040;28;20460;-79
2022/04/20 00:11:05;;;;;;;10.88;2.53;;;7.50;81.00;;;;;;5091434;28;20035;-77
2022/04/20 00:13:30;;;;;;;4.53;2.78;;;7.50;81.10;;;;;;5091679;28;20031;-78
2022/04/20 00:15:57;;;;;;;3.97;2.55;;;7.40;81.00;;;;;;5090984;28;20020;-79
2022/04/20 00:18:22;;;;;;;3.78;2.45;;;7.40;80.90;;;;;;5091890;28;20037;-78
2022/04/20 00:20:48;;;;;;;3.97;2.58;;;7.30;81.40;;;;;;5072825;28;20024;-77
2022/04/20 00:23:13;;;;;;;3.35;2.50;;;7.20;81.60;;;;;;5091224;28;20034;-77
2022/04/20 00:25:39;;;;;;;3.67;2.38;;;7.20;82.10;;;;;;5090753;28;20030;-78
2022/04/20 00:28:04;;;;;;;5.50;3.00;;;7.20;82.30;;;;;;5091960;28;20024;-79
2022/04/20 00:30:30;;;;;;;5.30;3.63;;;7.10;82.60;;;;;;5091192;28;20031;-77
2022/04/20 00:32:55;;;;;;;12.43;3.08;;;7.10;82.90;;;;;;5091153;28;20541;-78
2022/04/20 00:35:21;;;;;;;6.28;3.40;;;7.00;82.80;;;;;;5090732;28;20035;-80
2022/04/20 00:37:47;;;;;;;5.68;3.42;;;7.00;82.90;;;;;;5090864;28;20032;-78
2022/04/20 00:40:13;;;;;;;5.22;3.58;;;6.90;83.00;;;;;;5091177;28;20019;-78
2022/04/20 00:42:42;;;;;;;4.90;3.58;;;6.90;83.50;;;;;;5090946;28;20023;-77
2022/04/20 00:45:09;;;;;;;6.05;3.20;;;6.80;83.70;;;;;;5091200;28;20111;-80
2022/04/20 00:47:37;;;;;;;4.20;3.55;;;6.80;84.30;;;;;;5090856;28;20023;-79
2022/04/20 00:50:03;;;;;;;5.07;3.28;;;6.70;84.60;;;;;;5090722;28;20020;-77
2022/04/20 00:52:29;;;;;;;5.70;3.72;;;6.70;84.70;;;;;;5071266;28;20461;-79
2022/04/20 00:54:54;;;;;;;7.18;3.28;;;6.60;85.30;;;;;;5073115;28;20135;-77
2022/04/20 00:57:20;;;;;;;4.93;3.50;;;6.60;85.70;;;;;;5090531;28;20077;-78
2022/04/20 00:59:46;;;;;;;6.30;4.05;;;6.50;85.90;;;;;;5090887;28;20101;-77
2022/04/20 01:02:12;;;;;;;5.22;4.20;;;6.50;86.00;;;;;;5072623;28;20461;-76
2022/04/20 01:04:38;;;;;;;5.45;3.80;;;6.50;86.20;;;;;;5090892;28;20028;-78
2022/04/20 01:07:14;;;;;;;7.00;3.83;;;6.40;86.20;;;;;;5072255;28;20399;-78
2022/04/20 01:09:41;;;;;;;5.35;3.55;;;6.40;86.50;;;;;;5090889;28;20074;-77
2022/04/20 01:12:08;;;;;;;6.03;3.58;;;6.30;86.40;;;;;;5090728;28;20028;-76
2022/04/20 01:14:34;;;;;;;5.57;3.67;;;6.30;86.70;;;;;;5090708;28;20028;-77
2022/04/20 01:17:00;;;;;;;6.10;3.38;;;6.30;87.50;;;;;;5090129;28;20083;-78
2022/04/20 01:19:38;;;;;;;6.80;3.58;;;6.20;87.60;;;;;;5071979;28;20468;-79
2022/04/20 01:22:04;;;;;;;5.10;3.58;;;6.20;88.20;;;;;;5072374;28;20452;-76
2022/04/20 01:24:30;;;;;;;5.25;3.95;;;6.10;89.10;;;;;;5090967;28;20137;-77
2022/04/20 01:26:57;;;;;;;7.75;3.28;;;6.10;89.00;;;;;;5090127;28;20016;-77
2022/04/20 01:29:22;;;;;;;5.78;3.65;;;6.10;89.30;;;;;;5090672;28;20082;-78
2022/04/20 01:31:49;;;;;;;6.07;3.92;;;6.00;89.80;;;;;;5090431;28;20035;-77
2022/04/20 01:34:14;;;;;;;4.15;3.50;;;6.00;89.80;;;;;;5088452;28;20144;-78
2022/04/20 01:36:41;;;;;;;6.57;3.97;;;5.90;89.90;;;;;;5069600;28;20176;-76
2022/04/20 01:39:06;;;;;;;7.07;4.20;;;5.90;89.80;;;;;;5070564;28;20020;-76
2022/04/20 01:41:32;;;;;;;14.57;4.32;;;5.90;89.90;;;;;;5069882;28;20028;-77
2022/04/20 01:43:57;;;;;;;8.07;4.57;;;5.90;90.00;;;;;;5070526;28;20060;-77
2022/04/20 01:46:23;;;;;;;11.88;5.07;;;5.80;90.10;;;;;;5069680;28;20028;-77
2022/04/20 01:48:49;;;;;;;7.72;4.75;;;5.80;90.20;;;;;;5070388;28;20338;-78
2022/04/20 01:53:59;;;;;;;10.13;4.63;;;5.80;90.50;;;;;;5070598;28;20109;-77
2022/04/20 01:56:24;;;;;;;8.55;5.35;;;5.80;90.50;;;;;;5069243;28;20055;-79
2022/04/20 01:58:50;;;;;;;7.70;4.65;;;5.70;90.40;;;;;;5070125;28;20373;-77
2022/04/20 02:03:59;;;;;;;6.07;4.32;;;5.70;90.50;;;;;;5070261;28;20083;-78
2022/04/20 02:06:25;;;;;;;6.43;4.28;;;5.70;90.70;;;;;;5069137;28;20480;-77
2022/04/20 02:08:50;;;;;;;11.57;5.25;;;5.70;90.70;;;;;;5070086;28;20047;-76
2022/04/20 02:11:16;;;;;;;10.60;4.70;;;5.70;91.00;;;;;;5069888;28;20093;-77
2022/04/20 02:13:41;;;;;;;16.45;4.32;;;5.60;91.10;;;;;;5070196;28;20076;-75
2022/04/20 02:16:07;;;;;;;8.70;3.80;;;5.60;91.10;;;;;;5069455;28;20368;-77
2022/04/20 02:18:32;;;;;;;5.78;4.03;;;5.60;91.20;;;;;;5069737;28;20453;-78
2022/04/20 02:20:58;;;;;;;4.30;3.40;;;5.60;91.20;;;;;;5051633;28;20033;-76
2022/04/20 02:23:23;;;;;;;6.63;3.67;;;5.60;91.30;;;;;;5058187;28;20052;-77
2022/04/20 02:25:49;;;;;;;9.88;4.30;;;5.60;91.50;;;;;;5080681;28;20016;-76
2022/04/20 02:28:14;;;;;;;7.15;3.88;;;5.60;91.40;;;;;;5090299;28;20027;-76
2022/04/20 02:30:40;;;;;;;5.75;3.15;;;5.50;91.50;;;;;;5089935;28;20056;-78
2022/04/20 02:33:05;;;;;;;4.40;3.25;;;5.50;91.50;;;;;;5086705;28;20028;-77
2022/04/20 02:35:31;;;;;;;12.70;3.10;;;5.50;91.60;;;;;;5080204;28;20029;-76
2022/04/20 02:37:58;;;;;;;4.82;3.60;;;5.50;91.60;;;;;;5069835;28;20452;-77
2022/04/20 02:40:24;;;;;;;6.35;4.15;;;5.40;91.70;;;;;;5069762;28;20031;-79
2022/04/20 02:42:49;;;;;;;8.25;3.58;;;5.40;91.70;;;;;;5069775;28;20024;-78
2022/04/20 02:45:16;;;;;;;5.90;3.85;;;5.40;91.70;;;;;;5069872;28;20093;-77
2022/04/20 02:47:42;;;;;;;5.63;3.40;;;5.40;91.90;;;;;;5073554;28;20500;-78
2022/04/20 02:50:08;;;;;;;6.50;3.83;;;5.30;91.90;;;;;;5073314;28;20048;-76
2022/04/20 02:52:33;;;;;;;5.10;4.15;;;5.30;92.00;;;;;;5072670;28;20111;-78
2022/04/20 02:54:59;;;;;;;9.88;4.35;;;5.30;92.10;;;;;;5073096;28;20028;-78
2022/04/20 02:57:24;;;;;;;7.38;4.68;;;5.20;92.10;;;;;;5072436;28;20396;-76
2022/04/20 02:59:50;;;;;;;5.65;4.47;;;5.20;92.20;;;;;;5072950;28;20032;-78
2022/04/20 03:02:15;;;;;;;6.38;4.35;;;5.20;92.20;;;;;;5072869;28;20028;-76
2022/04/20 03:04:41;;;;;;;5.30;4.25;;;5.10;92.20;;;;;;5072901;28;20100;-78
2022/04/20 03:07:06;;;;;;;6.05;4.60;;;5.10;92.40;;;;;;5072411;28;20351;-78
2022/04/20 03:09:32;;;;;;;11.88;4.55;;;5.10;92.50;;;;;;5072769;28;20097;-77
2022/04/20 03:11:58;;;;;;;5.93;3.88;;;5.10;92.60;;;;;;5072694;28;20032;-76
2022/04/20 03:14:23;;;;;;;6.53;4.28;;;5.00;92.60;;;;;;5072725;28;20033;-78
2022/04/20 03:16:49;;;;;;;7.78;3.92;;;5.00;92.60;;;;;;5072232;28;20372;-78
2022/04/20 03:19:15;;;;;;;6.95;4.18;;;5.00;92.80;;;;;;5072826;28;20065;-77
2022/04/20 03:21:40;;;;;;;6.25;3.95;;;5.00;92.80;;;;;;5072441;28;20044;-77
2022/04/20 03:24:06;;;;;;;5.22;3.03;;;4.90;92.90;;;;;;5072517;28;20654;-76
2022/04/20 03:26:31;;;;;;;5.00;3.65;;;4.90;92.90;;;;;;5071794;28;20027;-78
2022/04/20 03:28:57;;;;;;;7.47;3.65;;;4.90;93.00;;;;;;5072881;28;20029;-76
2022/04/20 03:31:22;;;;;;;7.00;3.95;;;4.90;93.10;;;;;;5071962;28;20036;-78
2022/04/20 03:33:48;;;;;;;5.10;3.53;;;4.90;93.20;;;;;;5072652;28;20032;-76
2022/04/20 03:36:14;;;;;;;7.80;4.45;;;4.90;93.40;;;;;;5071528;28;20476;-80
2022/04/20 03:38:39;;;;;;;7.82;4.82;;;4.90;93.40;;;;;;5072426;28;20016;-79
2022/04/20 03:41:05;;;;;;;5.32;3.40;;;4.80;93.30;;;;;;5072129;28;20028;-77
2022/04/20 03:43:31;;;;;;;6.90;3.85;;;4.80;93.40;;;;;;5072450;28;20098;-77
2022/04/20 03:45:57;;;;;;;7.50;4.65;;;4.80;93.50;;;;;;5071304;28;20111;-78
2022/04/20 03:48:23;;;;;;;6.85;3.80;;;4.80;93.70;;;;;;5071848;28;20100;-78
2022/04/20 03:50:49;;;;;;;6.47;3.97;;;4.80;93.70;;;;;;5071574;28;20086;-78
2022/04/20 03:53:15;;;;;;;6.40;4.18;;;4.80;93.70;;;;;;5071942;28;20078;-77
2022/04/20 03:55:40;;;;;;;5.28;3.80;;;4.80;94.00;;;;;;5071613;28;20412;-76
2022/04/20 03:58:06;;;;;;;6.68;3.75;;;4.80;93.90;;;;;;5071263;28;20036;-77
2022/04/20 04:00:31;;;;;;;5.20;3.95;;;4.80;93.90;;;;;;5071802;28;20377;-76
2022/04/20 04:02:57;;;;;;;10.00;4.72;;;4.80;94.00;;;;;;5071665;28;20037;-78
2022/04/20 04:05:23;;;;;;;7.10;4.05;;;4.80;94.00;;;;;;5071247;28;20021;-78
2022/04/20 04:07:48;;;;;;;5.60;4.18;;;4.80;94.00;;;;;;5071550;28;20058;-76
2022/04/20 04:10:14;;;;;;;5.82;4.68;;;4.90;94.00;;;;;;5071716;28;20059;-78
2022/04/20 04:12:40;;;;;;;6.28;4.20;;;4.90;94.10;;;;;;5071171;28;20030;-76
2022/04/20 04:15:06;;;;;;;7.00;3.10;;;4.90;94.10;;;;;;5071749;28;20044;-77
2022/04/20 04:17:32;;;;;;;11.10;4.18;;;4.90;94.10;;;;;;5071096;28;20161;-76
2022/04/20 04:19:57;;;;;;;8.57;4.70;;;5.00;94.10;;;;;;5071491;28;20028;-76
2022/04/20 04:22:23;;;;;;;13.45;4.78;;;5.00;94.30;;;;;;5070963;28;20396;-77
2022/04/20 04:24:49;;;;;;;5.82;4.30;;;5.00;94.20;;;;;;5071516;28;20028;-77
2022/04/20 04:27:15;;;;;;;6.25;4.25;;;5.00;94.10;;;;;;5070580;28;20021;-77
2022/04/20 04:29:40;;;;;;;5.18;3.72;;;5.10;94.00;;;;;;5071014;28;20040;-79
2022/04/20 04:32:07;;;;;;;7.03;4.50;;;5.10;94.00;;;;;;5071011;28;20024;-76
2022/04/20 04:34:33;;;;;;;5.13;3.55;;;5.20;94.00;;;;;;5070946;28;20113;-78
2022/04/20 04:36:59;;;;;;;6.13;4.65;;;5.20;94.00;;;;;;5069090;28;20048;-77
2022/04/20 04:39:31;;;;;;;6.47;4.55;;;5.30;94.00;;;;;;5070831;28;20101;-79
2022/04/20 04:41:57;;;;;;;12.10;4.53;;;5.40;93.80;;;;;;5070866;28;20103;-78
2022/04/20 04:44:22;;;;;;;6.72;4.88;;;5.40;93.80;;;;;;5070882;28;20309;-79
2022/04/20 04:49:33;;;;;;;7.70;4.80;;;5.50;93.80;;;;;;5070801;28;20023;-78
2022/04/20 04:51:59;;;;;;;11.10;5.60;;;5.50;93.80;;;;;;5070660;28;20396;-76
2022/04/20 04:54:25;;;;;;;7.35;4.38;;;5.60;93.80;;;;;;5070685;28;20035;-79
2022/04/20 04:56:51;;;;;;;7.80;4.40;;;5.60;93.80;;;;;;5070171;28;20024;-79
2022/04/20 04:59:17;;;;;;;7.25;4.85;;;5.60;93.70;;;;;;5070871;28;20032;-79
2022/04/20 05:01:43;;;;;;;6.15;4.45;;;5.60;93.80;;;;;;5070278;28;20044;-78
2022/04/20 05:04:09;;;;;;;5.60;4.20;;;5.70;93.90;;;;;;5070949;28;20032;-77
2022/04/20 05:06:35;;;;;;;8.82;4.80;;;5.70;93.80;;;;;;5069748;28;20469;-80
2022/04/20 05:09:00;;;;;;;5.85;4.50;;;5.70;93.90;;;;;;5070831;28;20060;-80
2022/04/20 05:11:26;;;;;;;7.82;4.32;;;5.80;94.00;;;;;;5052158;28;20115;-79
2022/04/20 05:13:52;;;;;;;5.47;3.95;;;5.90;94.00;;;;;;5070792;28;20029;-79
2022/04/20 05:16:17;;;;;;;9.32;4.65;;;6.00;94.10;;;;;;5070188;28;20037;-78
2022/04/20 05:18:43;;;;;;;11.38;4.70;;;6.00;94.10;;;;;;5070509;28;20107;-78
2022/04/20 05:21:08;;;;;;;5.68;3.67;;;6.20;94.10;;;;;;5070121;28;20419;-80
2022/04/20 05:23:34;;;;;;;11.02;4.75;;;6.30;94.20;;;;;;5070464;28;20020;-78
2022/04/20 05:25:59;;;;;;;9.00;4.80;;;6.40;94.30;;;;;;5069976;28;20103;-77
2022/04/20 05:28:25;;;;;;;8.18;3.90;;;6.50;94.30;;;;;;5070369;28;20063;-79
2022/04/20 05:30:50;;;;;;;7.05;4.60;;;6.70;94.20;;;;;;5069949;28;20020;-78
2022/04/20 05:33:16;;;;;;;11.15;4.75;;;6.80;94.10;;;;;;5070259;28;20036;-78
2022/04/20 05:35:41;;;;;;;5.93;4.85;;;7.00;94.10;;;;;;5051664;28;20028;-77
2022/04/20 05:43:35;;;;;;;7.57;4.18;;;7.50;92.90;;;;;;5070483;28;20035;-78
2022/04/20 05:46:01;;;;;;;9.10;3.72;;;7.70;92.40;;;;;;5069764;28;20024;-79
2022/04/20 05:48:27;;;;;;;7.80;4.60;;;7.80;92.40;;;;;;5070077;28;20025;-77
2022/04/20 05:50:52;;;;;;;12.80;5.20;;;7.90;91.70;;;;;;5069983;28;20025;-79
2022/04/20 05:53:18;;;;;;;11.55;3.75;;;8.10;91.60;;;;;;5070246;28;20466;-78
2022/04/20 05:55:43;;;;;;;11.23;4.28;;;8.20;91.60;;;;;;5069682;28;20028;-78
2022/04/20 05:58:09;;;;;;;4.95;4.10;;;8.30;91.00;;;;;;5070228;28;20017;-78
2022/04/20 06:00:34;;;;;;;6.65;4.05;;;8.40;90.90;;;;;;5069985;28;20096;-80
2022/04/20 06:03:00;;;;;;;8.57;4.18;;;8.50;91.00;;;;;;5069812;28;20025;-78
2022/04/20 06:05:25;;;;;;;8.20;3.90;;;8.60;90.70;;;;;;5069599;28;20060;-80
2022/04/20 06:07:51;;;;;;;10.25;4.28;;;8.70;90.70;;;;;;5070392;28;20418;-78
2022/04/20 06:10:16;;;;;;;7.00;3.08;;;8.80;90.20;;;;;;5070013;28;20037;-79
2022/04/20 06:12:42;;;;;;;5.50;3.15;;;8.90;88.90;;;;;;5069698;28;20107;-80
2022/04/20 06:15:08;;;;;;;8.77;4.07;;;8.90;87.30;;;;;;5069928;28;20032;-79
2022/04/20 06:17:34;;;;;;;13.60;4.13;;;8.90;87.60;;;;;;5069254;28;20028;-78
2022/04/20 06:20:00;;;;;;;7.43;4.32;;;8.90;88.00;;;;;;5069689;28;20036;-77
2022/04/20 06:22:26;;;;;;;4.03;3.33;;;9.00;87.50;;;;;;5055525;28;20024;-78
2022/04/20 06:24:52;;;;;;;10.40;4.43;;;9.00;87.10;;;;;;5073941;28;20044;-77
2022/04/20 06:27:17;;;;;;;5.05;3.80;;;9.10;87.70;;;;;;5073407;28;20033;-78
2022/04/20 06:29:43;;;;;;;9.32;3.92;;;9.10;87.70;;;;;;5073720;28;20036;-79
2022/04/20 06:32:09;;;;;;;4.72;3.97;;;9.10;88.20;;;;;;5073609;28;20127;-78
2022/04/20 06:34:34;;;;;;;7.78;4.07;;;9.30;88.30;;;;;;5073951;28;20040;-78
2022/04/20 06:37:00;;;;;;;8.90;4.57;;;9.30;87.80;;;;;;5072788;28;20029;-78
2022/04/20 06:39:26;;;;;;;6.47;3.85;;;9.40;87.90;;;;;;5073680;28;20415;-79
2022/04/20 06:41:51;;;;;;;8.15;3.83;;;9.60;86.80;;;;;;5073141;28;20112;-79
2022/04/20 06:44:18;;;;;;;6.60;3.92;;;9.70;86.40;;;;;;5055711;28;20028;-79
2022/04/20 06:46:43;;;;;;;6.80;3.47;;;9.80;86.00;;;;;;5072564;28;20033;-79
2022/04/20 06:49:09;;;;;;;6.32;3.10;;;9.80;86.50;;;;;;5073493;28;20030;-78
2022/04/20 06:59:47;;;;;;;5.07;3.47;;;9.90;85.20;;;;;;5073376;28;20170;-77
2022/04/20 07:02:13;;;;;;;5.78;3.15;;;10.00;84.00;;;;;;5072688;28;20103;-79
2022/04/20 07:04:38;;;;;;;10.00;3.25;;;10.00;85.00;;;;;;5073052;28;20031;-77
2022/04/20 07:07:04;;;;;;;6.55;3.75;;;10.00;84.80;;;;;;5072170;28;20020;-77
2022/04/20 07:09:30;;;;;;;6.22;3.22;;;10.00;84.50;;;;;;5072995;28;20025;-78
2022/04/20 07:11:55;;;;;;;7.72;3.60;;;10.10;84.30;;;;;;5072491;28;20399;-78
2022/04/20 07:14:21;;;;;;;4.63;3.65;;;10.10;84.60;;;;;;5054988;28;20632;-80
2022/04/20 07:16:46;;;;;;;5.97;3.20;;;10.10;84.80;;;;;;5072227;28;20048;-77
2022/04/20 07:19:12;;;;;;;6.35;3.35;;;10.10;85.20;;;;;;5072934;28;20085;-79
2022/04/20 07:21:39;;;;;;;5.35;3.25;;;10.20;84.00;;;;;;5072420;28;20465;-78
2022/04/20 07:24:04;;;;;;;4.47;3.03;;;10.20;84.90;;;;;;5072765;28;20020;-77
2022/04/20 07:26:30;;;;;;;5.30;3.28;;;10.30;85.00;;;;;;5071886;28;20024;-80
2022/04/20 07:28:55;;;;;;;7.43;3.25;;;10.40;85.00;;;;;;5072454;28;20025;-79
2022/04/20 07:31:21;;;;;;;8.13;3.10;;;10.40;83.40;;;;;;5071938;28;20157;-78
2022/04/20 07:33:46;;;;;;;8.38;3.28;;;10.50;85.00;;;;;;5071328;28;20028;-77
2022/04/20 07:36:12;;;;;;;5.03;2.83;;;10.50;83.70;;;;;;5071821;28;20024;-77
2022/04/20 07:38:38;;;;;;;4.68;3.10;;;10.50;82.90;;;;;;5054236;28;20078;-79
2022/04/20 07:41:04;;;;;;;5.38;3.35;;;10.50;82.80;;;;;;5072200;28;20028;-81
2022/04/20 07:43:31;;;;;;;5.28;3.20;;;10.60;83.70;;;;;;5054343;28;20021;-77
2022/04/20 07:45:57;;;;;;;6.38;2.97;;;10.60;83.50;;;;;;5071905;28;20044;-78
2022/04/20 07:48:22;;;;;;;4.60;2.90;;;10.70;82.80;;;;;;5072221;28;20461;-80
2022/04/20 07:50:49;;;;;;;8.45;3.45;;;10.80;82.30;;;;;;5070327;28;20020;-79
2022/04/20 07:53:15;;;;;;;4.68;2.92;;;10.80;82.40;;;;;;5072267;28;20437;-77
2022/04/20 07:55:46;;;;;;;6.45;3.70;;;10.90;81.90;;;;;;5071299;28;20052;-79
2022/04/20 07:58:12;;;;;;;5.53;3.22;;;10.90;81.40;;;;;;5072170;28;20464;-80
2022/04/20 08:00:37;;;;;;;5.18;2.90;;;11.00;81.80;;;;;;5071799;28;20021;-77
2022/04/20 08:03:14;;;;;;;3.78;2.65;;;11.20;81.60;;;;;;5071746;28;20059;-78
2022/04/20 08:05:41;;;;;;;9.88;3.28;;;11.20;81.80;;;;;;5053088;28;20029;-78
2022/04/20 08:08:08;;;;;;;7.20;4.53;;;11.30;79.60;;;;;;5071778;28;20025;-78
2022/04/20 08:10:33;;;;;;;10.13;3.55;;;11.40;80.20;;;;;;5071718;28;20358;-80
2022/04/20 08:12:59;;;;;;;4.95;3.53;;;11.40;79.20;;;;;;5053488;28;20039;-79
2022/04/20 08:15:24;;;;;;;5.10;3.72;;;11.40;80.30;;;;;;5071090;28;20465;-77
2022/04/20 08:17:50;;;;;;;6.05;3.47;;;11.50;79.70;;;;;;5071458;28;20531;-78
2022/04/20 08:20:15;;;;;;;5.28;3.70;;;11.60;80.80;;;;;;5071284;28;20097;-80
2022/04/20 08:22:45;;;;;;;12.57;3.63;;;11.60;79.10;;;;;;5071240;28;20504;-78
2022/04/20 08:25:12;;;;;;;4.53;3.40;;;11.60;81.30;;;;;;5071349;28;20028;-78
2022/04/20 08:27:38;;;;;;;7.57;4.15;;;11.70;80.10;;;;;;5071124;28;20415;-78
2022/04/20 08:30:06;;;;;;;8.80;4.35;;;11.80;79.90;;;;;;5071650;28;20024;-78
2022/04/20 08:32:32;;;;;;;5.72;3.80;;;11.80;83.00;;;;;;5070470;28;20024;-77
2022/04/20 08:34:57;;;;;;;6.28;3.90;;;12.00;80.20;;;;;;5071329;28;20089;-79
2022/04/20 08:37:23;;;;;;;5.35;3.42;;;12.00;79.10;;;;;;5070537;28;20028;-80
2022/04/20 08:39:48;;;;;;;4.82;3.05;;;12.10;80.10;;;;;;5071616;28;20024;-78
2022/04/20 08:42:17;;;;;;;5.85;3.53;;;12.20;79.60;;;;;;5070886;28;20082;-80
2022/04/20 08:44:49;;;;;;;3.38;2.65;;;12.20;79.10;;;;;;5071329;28;20415;-79
2022/04/20 08:47:23;;;;;;;4.63;3.30;;;12.30;80.30;;;;;;5070669;28;20458;-78
2022/04/20 08:49:49;;;;;;;5.03;3.38;;;12.40;79.80;;;;;;5070815;28;20023;-78
2022/04/20 08:52:38;;;;;;;7.15;3.63;;;12.50;79.80;;;;;;5070687;28;20036;-80
2022/04/20 08:55:09;;;;;;;3.78;2.75;;;12.70;77.90;;;;;;5071098;28;20025;-80
2022/04/20 08:57:36;;;;;;;6.10;2.60;;;12.80;77.20;;;;;;5070307;28;20013;-79
2022/04/20 09:00:05;;;;;;;5.30;2.92;;;12.90;77.90;;;;;;5052986;28;20044;-80
2022/04/20 09:02:31;;;;;;;3.63;2.83;;;12.90;75.50;;;;;;5070421;28;20102;-81
2022/04/20 09:04:57;;;;;;;8.38;3.25;;;13.00;75.90;;;;;;5052883;28;20025;-79
2022/04/20 09:07:24;;;;;;;3.72;2.72;;;13.10;76.10;;;;;;5069917;28;20418;-80
2022/04/20 09:09:51;;;;;;;4.65;2.63;;;13.10;75.40;;;;;;5070473;28;20035;-78
2022/04/20 09:12:19;;;;;;;3.95;2.97;;;13.10;77.00;;;;;;5070270;28;20060;-78
2022/04/20 09:14:48;;;;;;;5.57;2.90;;;13.20;77.80;;;;;;5070439;28;20033;-80
2022/04/20 09:17:19;;;;;;;4.18;2.65;;;13.20;76.10;;;;;;5070079;28;20024;-79
2022/04/20 09:19:46;;;;;;;4.75;2.55;;;13.30;76.90;;;;;;5070428;28;20090;-79
2022/04/20 09:22:25;;;;;;;10.15;2.20;;;13.40;76.20;;;;;;5070480;28;20368;-79
2022/04/20 09:25:05;;;;;;;2.50;2.13;;;13.40;76.00;;;;;;5070809;28;20036;-79
2022/04/20 09:27:31;;;;;;;4.47;3.15;;;13.50;76.00;;;;;;5069768;28;20137;-80
2022/04/20 09:29:58;;;;;;;5.47;2.42;;;13.60;75.90;;;;;;5070304;28;20112;-79
2022/04/20 09:32:34;;;;;;;3.67;2.42;;;13.80;76.10;;;;;;5069971;28;20024;-80
2022/04/20 09:35:03;;;;;;;6.22;3.20;;;13.90;75.00;;;;;;5070403;28;20461;-81
2022/04/20 09:37:29;;;;;;;5.85;2.22;;;14.00;73.50;;;;;;5069605;28;20038;-78
2022/04/20 09:39:55;;;;;;;3.30;2.13;;;14.00;74.60;;;;;;5070529;28;20078;-80
2022/04/20 09:42:21;;;;;;;3.70;2.33;;;14.10;74.30;;;;;;5070073;28;20032;-79
2022/04/20 09:45:00;;;;;;;3.80;2.33;;;14.20;74.90;;;;;;5069120;28;20025;-81
2022/04/20 09:50:22;;;;;;;5.57;2.83;;;14.40;72.40;;;;;;5070383;28;20035;-80
2022/04/20 09:52:52;;;;;;;4.30;2.70;;;14.40;73.50;;;;;;5069807;28;20028;-81
2022/04/20 09:55:30;;;;;;;4.03;3.10;;;14.40;72.60;;;;;;5070038;28;20024;-78
2022/04/20 09:58:19;;;;;;;6.50;2.70;;;14.50;73.20;;;;;;5074398;28;20029;-80
2022/04/20 10:00:50;;;;;;;4.40;2.65;;;14.50;73.10;;;;;;5073906;28;20024;-79
2022/04/20 10:03:26;;;;;;;5.30;2.83;;;14.50;72.70;;;;;;5074066;28;20144;-79
2022/04/20 10:05:53;;;;;;;2.88;2.40;;;14.50;72.60;;;;;;5073631;28;20028;-80
2022/04/20 10:08:20;;;;;;;3.40;2.40;;;14.30;73.20;;;;;;5073937;28;20029;-79
2022/04/20 10:10:48;;;;;;;4.00;2.78;;;14.20;73.00;;;;;;5073830;28;20663;-79
2022/04/20 10:13:15;;;;;;;4.00;2.80;;;14.00;73.30;;;;;;5055978;28;20075;-79
2022/04/20 10:18:28;;;;;;;5.57;3.00;;;14.10;75.00;;;;;;5074123;28;20039;-79
2022/04/20 10:21:00;;;;;;;8.25;2.88;;;14.10;76.40;;;;;;5073767;28;20021;-79
2022/04/20 10:23:29;;;;;;;6.82;3.20;;;14.00;77.00;;;;;;5074007;28;20027;-79
2022/04/20 10:25:55;;;;;;;4.85;3.03;;;14.00;76.90;;;;;;5073407;28;20016;-81
2022/04/20 10:28:29;;;;;;;7.18;2.83;;;14.00;76.50;;;;;;5073694;28;20619;-80
2022/04/20 10:31:12;;;;;;;5.40;3.50;;;14.10;77.20;;;;;;5055566;28;20472;-79
2022/04/20 10:33:41;;;;;;;4.63;2.67;;;14.20;76.20;;;;;;5073568;28;20538;-81
2022/04/20 10:36:12;;;;;;;5.25;3.00;;;14.20;76.60;;;;;;5072771;28;20028;-79
2022/04/20 10:38:38;;;;;;;5.22;2.85;;;14.40;76.60;;;;;;5073390;28;20025;-81
2022/04/20 10:41:11;;;;;;;4.70;2.75;;;14.50;76.20;;;;;;5073248;28;20060;-80
2022/04/20 10:43:42;;;;;;;4.38;2.47;;;14.50;75.10;;;;;;5073321;28;20082;-79
2022/04/20 10:46:11;;;;;;;5.13;2.95;;;14.40;75.30;;;;;;5072698;28;20024;-80
2022/04/20 10:48:52;;;;;;;4.65;3.15;;;14.40;75.40;;;;;;5073285;28;20028;-81
2022/04/20 10:51:19;;;;;;;4.97;2.65;;;14.40;75.20;;;;;;5054834;28;20085;-80
2022/04/20 10:53:48;;;;;;;6.35;3.00;;;14.40;75.30;;;;;;5073194;28;20033;-80
2022/04/20 10:56:14;;;;;;;4.22;2.88;;;14.20;75.60;;;;;;5054598;28;20017;-80
2022/04/20 10:59:04;;;;;;;4.45;3.17;;;13.90;76.50;;;;;;5073042;28;20087;-81
2022/04/20 11:01:30;;;;;;;4.15;2.78;;;13.80;77.30;;;;;;5072566;28;20522;-80
2022/04/20 11:04:02;;;;;;;6.47;3.33;;;13.80;77.00;;;;;;5073253;28;20036;-81
2022/04/20 11:06:28;;;;;;;5.00;2.88;;;13.70;77.50;;;;;;5072153;28;20107;-80
2022/04/20 11:09:00;;;;;;;5.40;3.35;;;13.90;78.60;;;;;;5073171;28;20060;-82
2022/04/20 11:20:05;;;;;;;7.30;2.78;;;13.40;77.50;;;;;;5072601;28;20172;-81
2022/04/20 11:22:31;;;;;;;4.50;3.20;;;13.30;79.10;;;;;;5070977;28;20039;-80
2022/04/20 11:25:02;;;;;;;5.97;2.85;;;13.40;77.90;;;;;;5073017;28;20040;-79
2022/04/20 11:27:35;;;;;;;3.58;2.85;;;13.50;77.60;;;;;;5072057;28;20373;-81
2022/04/20 11:30:03;;;;;;;5.05;2.95;;;13.70;76.70;;;;;;5054892;28;20399;-82
2022/04/20 11:32:29;;;;;;;3.53;2.83;;;13.80;77.40;;;;;;5071878;28;20102;-80
2022/04/20 11:35:06;;;;;;;5.63;3.17;;;13.80;76.70;;;;;;5072688;28;20028;-80
2022/04/20 11:37:33;;;;;;;4.10;2.90;;;13.80;77.90;;;;;;5053636;28;20484;-80
2022/04/20 11:39:59;;;;;;;5.43;3.60;;;13.60;77.60;;;;;;5054611;28;20020;-80
2022/04/20 11:42:25;;;;;;;3.60;2.97;;;13.50;78.20;;;;;;5072151;28;20349;-82
2022/04/20 11:44:50;;;;;;;4.25;3.40;;;13.40;78.90;;;;;;5072419;28;20414;-79
2022/04/20 11:47:17;;;;;;;4.80;3.13;;;13.30;78.90;;;;;;5071670;28;20021;-78
2022/04/20 11:49:46;;;;;;;4.85;3.55;;;13.40;79.90;;;;;;5072081;28;20441;-78
2022/04/20 11:52:14;;;;;;;3.53;3.20;;;13.40;79.50;;;;;;5071910;28;20116;-78
2022/04/20 11:54:44;;;;;;;10.55;4.10;;;13.40;79.30;;;;;;5072276;28;20155;-78
2022/04/20 11:57:13;;;;;;;5.90;3.40;;;13.20;80.60;;;;;;5053434;28;20457;-78
2022/04/20 11:59:46;;;;;;;6.82;3.42;;;13.20;80.30;;;;;;5071991;28;20028;-80
2022/04/20 12:02:13;;;;;;;7.88;3.58;;;13.30;80.80;;;;;;5071978;28;20032;-79
2022/04/20 12:04:39;;;;;;;7.40;3.47;;;13.20;81.80;;;;;;5071842;28;20016;-80
2022/04/20 12:07:05;;;;;;;9.48;4.03;;;13.20;82.30;;;;;;5053099;28;20074;-81
2022/04/20 12:09:36;;;;;;;14.73;4.00;;;13.10;82.60;;;;;;5071771;28;20040;-79
2022/04/20 12:12:10;;;;;;;7.95;4.60;;;13.10;83.30;;;;;;5053456;28;20051;-80
2022/04/20 12:14:37;;;;;;;5.68;3.92;;;13.10;83.90;;;;;;5071818;28;20082;-81
2022/04/20 12:17:11;;;;;;;5.97;4.15;;;12.80;85.10;;;;;;5071191;28;20455;-81
2022/04/20 12:19:40;;;;;;;6.65;3.97;;;12.70;85.80;;;;;;5070823;28;20509;-79
2022/04/20 12:22:14;;;;;;;5.90;3.67;;;12.60;86.90;;;;;;5071439;28;20035;-80
2022/04/20 12:24:43;;;;;;;10.38;4.32;;;12.50;87.40;;;;;;5053486;28;20437;-79
2022/04/20 12:27:18;;;;;;;8.20;3.63;;;12.50;88.10;;;;;;5070927;28;20031;-79
2022/04/20 12:29:51;;;;;;;4.65;3.72;;;12.50;88.10;;;;;;5071199;28;20103;-78
2022/04/20 12:32:24;;;;;;;4.35;3.95;;;12.50;88.60;;;;;;5071055;28;20033;-81
2022/04/20 12:35:01;;;;;;;5.53;4.05;;;12.40;88.30;;;;;;5071410;28;20465;-80
2022/04/20 12:37:29;;;;;;;7.18;4.50;;;12.50;88.00;;;;;;5070488;28;20074;-79
2022/04/20 12:39:56;;;;;;;7.70;4.35;;;12.40;88.30;;;;;;5071244;28;20031;-80
2022/04/20 12:42:21;;;;;;;5.07;3.78;;;12.30;88.70;;;;;;5070652;28;20032;-80
2022/04/20 12:44:51;;;;;;;6.40;4.80;;;12.40;88.90;;;;;;5071081;28;20111;-79
2022/04/20 12:47:16;;;;;;;5.47;3.88;;;12.60;89.00;;;;;;5070554;28;20453;-80
2022/04/20 12:49:53;;;;;;;5.35;3.90;;;12.90;88.10;;;;;;5071039;28;20032;-82
2022/04/20 12:52:27;;;;;;;6.32;3.72;;;13.20;86.60;;;;;;5052713;28;20052;-79
2022/04/20 12:55:00;;;;;;;6.45;3.65;;;13.40;85.50;;;;;;5071213;28;20031;-81
2022/04/20 13:03:07;;;;;;;3.70;2.63;;;14.00;82.60;;;;;;5070727;28;20047;-81
2022/04/20 13:05:35;;;;;;;4.78;2.92;;;14.20;79.30;;;;;;5070160;28;20042;-81
2022/04/20 13:08:01;;;;;;;4.47;3.22;;;14.00;80.10;;;;;;5070847;28;20484;-81
2022/04/20 13:10:29;;;;;;;6.20;3.33;;;14.00;81.00;;;;;;5070992;28;20040;-80
2022/04/20 13:12:56;;;;;;;4.20;2.92;;;14.10;80.10;;;;;;5070394;28;20025;-81
2022/04/20 13:15:23;;;;;;;6.88;3.67;;;14.20;81.20;;;;;;5068715;28;20032;-82
2022/04/20 13:17:49;;;;;;;7.05;3.47;;;14.20;80.40;;;;;;5070546;28;20024;-81
2022/04/20 13:20:18;;;;;;;3.47;2.95;;;14.40;81.60;;;;;;5052579;28;20124;-78
2022/04/20 13:22:44;;;;;;;5.82;3.03;;;14.60;79.20;;;;;;5070083;28;20024;-79
2022/04/20 13:27:55;;;;;;;3.25;2.63;;;14.70;79.00;;;;;;5070790;28;20373;-82
2022/04/20 13:30:38;;;;;;;7.72;2.75;;;14.90;78.70;;;;;;5069452;28;20128;-78
2022/04/20 13:33:04;;;;;;;;;;;15.00;75.90;;;;;;5071061;28;20055;-80
2022/04/20 13:35:30;;;;;;;2.47;2.00;;;14.80;76.70;;;;;;5069688;28;19977;-80